createdAt,value
2023-05-19T00:01:33.301Z,9.78
2023-05-19T00:04:02.820Z,8.74
2023-05-19T00:06:32.588Z,8.89
2023-05-19T00:09:03.096Z,8.79
2023-05-19T00:11:31.390Z,9.35
2023-05-19T00:14:00.740Z,9.37
2023-05-19T00:16:30.936Z,8.85
2023-05-19T00:19:00.142Z,9.02
2023-05-19T00:21:28.271Z,9.05
2023-05-19T00:23:56.326Z,9.50
2023-05-19T00:26:24.458Z,8.98
2023-05-19T00:28:52.252Z,9.40
2023-05-19T00:31:20.266Z,9.20
2023-05-19T00:33:49.316Z,8.92
2023-05-19T00:36:17.099Z,8.73
2023-05-19T00:38:44.766Z,8.78
2023-05-19T00:41:12.822Z,9.11
2023-05-19T00:43:40.475Z,8.31
2023-05-19T00:46:08.264Z,8.84
2023-05-19T00:48:35.979Z,8.83
2023-05-19T00:51:06.614Z,8.76
2023-05-19T00:53:35.728Z,9.00
2023-05-19T00:56:04.451Z,9.23
2023-05-19T00:58:32.714Z,9.22
2023-05-19T01:01:03.651Z,9.06
2023-05-19T01:03:35.027Z,9.22
2023-05-19T01:06:05.886Z,9.31
2023-05-19T01:08:34.208Z,9.17
2023-05-19T01:11:02.017Z,9.09
2023-05-19T01:13:30.298Z,9.18
2023-05-19T01:16:02.654Z,8.84
2023-05-19T01:18:40.304Z,8.34
2023-05-19T01:21:44.456Z,8.73
2023-05-19T01:24:32.370Z,8.76
2023-05-19T01:27:28.745Z,8.19
2023-05-19T01:30:34.810Z,8.04
2023-05-19T01:33:06.621Z,8.01
2023-05-19T01:35:36.437Z,7.95
2023-05-19T01:38:06.178Z,8.65
2023-05-19T01:40:34.667Z,8.91
2023-05-19T01:43:03.213Z,9.12
2023-05-19T01:45:34.117Z,9.26
2023-05-19T01:48:04.403Z,8.98
2023-05-19T01:50:34.944Z,9.13
2023-05-19T01:53:02.951Z,9.09
2023-05-19T01:55:30.889Z,9.14
2023-05-19T01:58:07.916Z,9.10
2023-05-19T02:00:50.452Z,9.10
2023-05-19T02:03:30.696Z,9.39
2023-05-19T02:06:06.843Z,8.93
2023-05-19T02:08:42.505Z,8.68
2023-05-19T02:11:15.906Z,8.39
2023-05-19T02:13:46.330Z,8.48
2023-05-19T02:16:17.534Z,8.85
2023-05-19T02:18:48.065Z,8.98
2023-05-19T02:21:16.119Z,9.34
2023-05-19T02:23:43.819Z,9.11
2023-05-19T02:26:11.458Z,9.15
2023-05-19T02:28:39.128Z,9.17
2023-05-19T02:31:08.951Z,9.43
2023-05-19T02:33:38.008Z,9.56
2023-05-19T02:36:06.517Z,9.61
2023-05-19T02:38:34.184Z,9.65
2023-05-19T02:41:01.834Z,9.50
2023-05-19T02:43:30.595Z,9.76
2023-05-19T02:45:58.388Z,9.65
2023-05-19T02:48:26.101Z,9.75
2023-05-19T02:50:55.157Z,9.90
2023-05-19T02:53:22.798Z,9.82
2023-05-19T02:55:50.499Z,9.86
2023-05-19T02:58:18.679Z,9.87
2023-05-19T03:00:46.376Z,10.02
2023-05-19T03:03:15.057Z,10.04
2023-05-19T03:05:42.923Z,10.14
2023-05-19T03:08:11.990Z,10.16
2023-05-19T03:10:39.721Z,10.20
2023-05-19T03:13:07.410Z,10.05
2023-05-19T03:15:36.545Z,10.29
2023-05-19T03:18:04.364Z,10.05
2023-05-19T03:20:32.251Z,10.31
2023-05-19T03:23:00.016Z,10.46
2023-05-19T03:25:30.027Z,10.52
2023-05-19T03:27:57.732Z,10.53
2023-05-19T03:30:25.399Z,10.69
2023-05-19T03:32:53.276Z,10.70
2023-05-19T03:35:21.231Z,10.67
2023-05-19T03:37:48.938Z,10.76
2023-05-19T03:40:18.820Z,10.80
2023-05-19T03:42:47.846Z,11.02
2023-05-19T03:45:15.673Z,11.04
2023-05-19T03:47:43.419Z,11.03
2023-05-19T03:50:11.736Z,11.20
2023-05-19T03:52:39.774Z,10.92
2023-05-19T03:55:08.650Z,11.02
2023-05-19T03:57:36.352Z,10.89
2023-05-19T04:00:07.051Z,10.94
2023-05-19T04:02:34.888Z,10.69
2023-05-19T04:05:04.870Z,11.03
2023-05-19T04:07:32.624Z,11.27
2023-05-19T04:10:00.569Z,11.61
2023-05-19T04:12:28.261Z,11.22
2023-05-19T04:14:55.968Z,11.58
2023-05-19T04:17:26.385Z,11.60
2023-05-19T04:19:54.356Z,11.80
2023-05-19T04:22:22.021Z,11.86
2023-05-19T04:24:50.583Z,11.76
2023-05-19T04:27:18.349Z,12.22
2023-05-19T04:29:48.295Z,12.48
2023-05-19T04:32:17.645Z,12.41
2023-05-19T04:34:46.970Z,12.71
2023-05-19T04:37:16.147Z,12.70
2023-05-19T04:39:45.342Z,12.13
2023-05-19T04:42:13.321Z,12.36
2023-05-19T04:44:41.062Z,12.64
2023-05-19T04:47:09.190Z,12.80
2023-05-19T04:49:39.529Z,12.17
2023-05-19T04:52:10.912Z,12.39
2023-05-19T04:54:39.716Z,11.54
2023-05-19T04:57:07.776Z,12.42
2023-05-19T04:59:35.433Z,12.85
2023-05-19T05:02:04.249Z,12.64
2023-05-19T05:04:32.475Z,12.39
2023-05-19T05:07:00.182Z,12.73
2023-05-19T05:09:29.285Z,13.70
2023-05-19T05:11:57.473Z,13.88
2023-05-19T05:14:25.728Z,14.80
2023-05-19T05:16:54.146Z,12.92
2023-05-19T05:19:23.116Z,13.27
2023-05-19T05:21:52.131Z,12.93
2023-05-19T05:24:20.546Z,12.81
2023-05-19T05:26:50.104Z,13.14
2023-05-19T05:29:17.780Z,12.54
2023-05-19T05:31:45.477Z,13.01
2023-05-19T05:34:13.266Z,13.09
2023-05-19T05:36:41.328Z,12.80
2023-05-19T05:39:09.006Z,12.66
2023-05-19T05:41:36.722Z,12.81
2023-05-19T05:44:06.360Z,12.11
2023-05-19T05:46:34.111Z,12.29
2023-05-19T05:49:02.399Z,12.53
2023-05-19T05:51:32.829Z,12.49
2023-05-19T05:54:02.417Z,13.23
2023-05-19T05:56:30.614Z,12.79
2023-05-19T05:58:58.627Z,12.44
2023-05-19T06:01:28.145Z,13.59
2023-05-19T06:03:55.820Z,13.27
2023-05-19T06:06:23.462Z,14.12
2023-05-19T06:08:51.134Z,14.20
2023-05-19T06:11:19.661Z,14.02
2023-05-19T06:13:47.443Z,13.79
2023-05-19T06:16:15.161Z,12.92
2023-05-19T06:18:44.318Z,13.13
2023-05-19T06:21:13.253Z,14.09
2023-05-19T06:23:41.095Z,14.76
2023-05-19T06:26:08.770Z,14.21
2023-05-19T06:28:36.452Z,13.40
2023-05-19T06:31:04.296Z,14.21
2023-05-19T06:33:31.983Z,14.57
2023-05-19T06:36:01.083Z,14.04
2023-05-19T06:38:28.852Z,15.45
2023-05-19T06:40:56.681Z,15.55
2023-05-19T06:43:25.728Z,16.82
2023-05-19T06:45:53.456Z,17.54
2023-05-19T06:48:21.136Z,16.51
2023-05-19T06:50:48.928Z,17.35
2023-05-19T06:53:18.062Z,19.77
2023-05-19T06:55:58.075Z,22.03
2023-05-19T06:58:27.316Z,18.44
2023-05-19T07:00:55.315Z,21.29
2023-05-19T07:03:23.459Z,22.59
2023-05-19T07:05:51.431Z,21.83
2023-05-19T07:08:20.471Z,21.00
2023-05-19T07:10:48.257Z,21.49
2023-05-19T07:13:16.313Z,22.41
2023-05-19T07:15:44.010Z,19.92
2023-05-19T07:18:11.709Z,17.57
2023-05-19T07:20:39.394Z,17.26
2023-05-19T07:23:07.202Z,17.50
2023-05-19T07:25:36.330Z,19.45
2023-05-19T07:28:04.189Z,19.04
2023-05-19T07:30:32.127Z,18.86
2023-05-19T07:33:00.070Z,17.19
2023-05-19T07:35:27.916Z,19.63
2023-05-19T07:37:55.584Z,18.61
2023-05-19T07:40:23.231Z,18.85
2023-05-19T07:42:53.423Z,18.74
2023-05-19T07:45:21.234Z,18.61
2023-05-19T07:47:48.920Z,21.47
2023-05-19T07:50:17.382Z,20.31
2023-05-19T07:52:45.065Z,18.26
2023-05-19T07:55:13.542Z,18.34
2023-05-19T07:57:41.522Z,17.77
2023-05-19T08:00:11.907Z,20.21
2023-05-19T08:02:39.760Z,19.80
2023-05-19T08:05:09.224Z,22.00
2023-05-19T08:07:37.136Z,19.42
2023-05-19T08:10:05.388Z,19.13
2023-05-19T08:12:33.051Z,20.13
2023-05-19T08:15:01.847Z,19.06
2023-05-19T08:17:31.149Z,17.60
2023-05-19T08:19:58.831Z,18.42
2023-05-19T08:22:26.712Z,21.67
2023-05-19T08:24:54.411Z,22.78
2023-05-19T08:27:22.067Z,22.77
2023-05-19T08:29:49.808Z,22.39
2023-05-19T08:32:17.975Z,19.87
2023-05-19T08:34:46.972Z,22.44
2023-05-19T08:37:14.657Z,21.95
2023-05-19T08:39:42.371Z,21.68
2023-05-19T08:42:10.208Z,19.79
2023-05-19T08:44:40.053Z,20.44
2023-05-19T08:47:13.871Z,19.75
2023-05-19T08:49:45.844Z,19.60
2023-05-19T08:52:25.427Z,18.18
2023-05-19T08:55:00.820Z,20.82
2023-05-19T08:57:29.672Z,20.65
2023-05-19T08:59:59.485Z,20.85
2023-05-19T09:02:28.392Z,20.89
2023-05-19T09:04:57.803Z,19.61
2023-05-19T09:07:27.977Z,18.39
2023-05-19T09:09:56.440Z,19.14
2023-05-19T09:12:24.372Z,20.35
2023-05-19T09:14:52.261Z,20.25
2023-05-19T09:17:19.908Z,18.83
2023-05-19T09:19:49.625Z,20.29
2023-05-19T09:22:19.259Z,19.59
2023-05-19T09:24:48.468Z,20.01
2023-05-19T09:27:22.124Z,19.43
2023-05-19T09:29:49.852Z,19.62
2023-05-19T09:32:26.201Z,20.32
2023-05-19T09:34:55.063Z,20.72
2023-05-19T09:37:24.338Z,19.29
2023-05-19T09:39:54.465Z,19.40
2023-05-19T09:42:26.868Z,19.90
2023-05-19T09:45:01.260Z,19.74
2023-05-19T09:47:29.173Z,19.50
2023-05-19T09:49:58.521Z,19.23
2023-05-19T09:52:27.332Z,19.94
2023-05-19T09:54:57.928Z,20.54
2023-05-19T09:57:26.861Z,20.51
2023-05-19T09:59:57.138Z,20.21
2023-05-19T10:02:27.064Z,19.83
2023-05-19T10:04:56.154Z,20.45
2023-05-19T10:07:25.122Z,19.91
2023-05-19T10:09:56.584Z,19.84
2023-05-19T10:12:27.979Z,19.88
2023-05-19T10:14:56.554Z,19.70
2023-05-19T10:17:26.122Z,20.86
2023-05-19T10:19:54.751Z,19.84
2023-05-19T10:22:22.569Z,19.64
2023-05-19T10:24:50.538Z,19.41
2023-05-19T10:27:19.389Z,19.81
2023-05-19T10:29:51.348Z,19.52
2023-05-19T10:32:24.153Z,20.26
2023-05-19T10:35:17.626Z,20.35
2023-05-19T10:37:51.890Z,19.80
2023-05-19T10:40:27.492Z,20.49
2023-05-19T10:43:04.100Z,20.53
2023-05-19T10:45:37.616Z,19.37
2023-05-19T10:48:05.680Z,19.33
2023-05-19T10:50:37.662Z,19.78
2023-05-19T10:53:05.502Z,19.48
2023-05-19T10:55:47.528Z,19.83
2023-05-19T10:58:15.539Z,21.04
2023-05-19T11:00:44.697Z,20.38
2023-05-19T11:03:16.240Z,20.71
2023-05-19T11:05:45.687Z,20.93
2023-05-19T11:08:13.971Z,21.34
2023-05-19T11:10:45.327Z,21.41
2023-05-19T11:13:22.701Z,21.10
2023-05-19T11:15:52.872Z,19.95
2023-05-19T11:18:21.299Z,19.93
2023-05-19T11:20:58.580Z,20.47
2023-05-19T11:23:26.730Z,19.98
2023-05-19T11:25:54.766Z,20.51
2023-05-19T11:28:25.941Z,19.92
2023-05-19T11:30:57.521Z,19.23
2023-05-19T11:33:27.217Z,20.57
2023-05-19T11:35:57.943Z,21.13
2023-05-19T11:38:26.005Z,21.35
2023-05-19T11:40:54.422Z,20.78
2023-05-19T11:43:24.294Z,21.53
2023-05-19T11:45:52.280Z,20.67
2023-05-19T11:48:23.684Z,20.21
2023-05-19T11:50:52.407Z,21.25
2023-05-19T11:53:20.991Z,19.77
2023-05-19T11:55:49.785Z,20.92
2023-05-19T11:58:18.034Z,21.57
2023-05-19T12:00:47.746Z,21.54
2023-05-19T12:03:17.440Z,22.77
2023-05-19T12:05:49.861Z,21.13
2023-05-19T12:08:18.549Z,20.20
2023-05-19T12:10:49.163Z,21.63
2023-05-19T12:13:16.829Z,21.69
2023-05-19T12:15:44.542Z,22.57
2023-05-19T12:18:12.394Z,21.34
2023-05-19T12:20:40.265Z,21.99
2023-05-19T12:23:09.890Z,21.60
2023-05-19T12:25:38.334Z,21.44
2023-05-19T12:28:06.424Z,21.34
2023-05-19T12:30:35.231Z,20.87
2023-05-19T12:33:03.890Z,21.25
2023-05-19T12:35:33.502Z,21.50
2023-05-19T12:38:04.690Z,22.44
2023-05-19T12:40:35.129Z,21.22
2023-05-19T12:43:03.411Z,20.81
2023-05-19T12:45:35.571Z,20.11
2023-05-19T12:48:04.750Z,21.10
2023-05-19T12:50:32.880Z,21.21
2023-05-19T12:53:00.846Z,21.01
2023-05-19T12:55:28.554Z,21.17
2023-05-19T12:57:59.105Z,22.32
2023-05-19T13:00:28.997Z,21.85
2023-05-19T13:03:00.278Z,21.33
2023-05-19T13:05:29.205Z,21.30
2023-05-19T13:07:58.312Z,20.55
2023-05-19T13:10:28.013Z,20.49
2023-05-19T13:12:57.425Z,21.55
2023-05-19T13:15:27.068Z,21.97
2023-05-19T13:17:55.541Z,22.28
2023-05-19T13:20:24.300Z,21.41
2023-05-19T13:22:52.825Z,20.31
2023-05-19T13:25:21.339Z,22.30
2023-05-19T13:27:49.913Z,21.36
2023-05-19T13:30:19.538Z,20.89
2023-05-19T13:32:47.276Z,20.47
2023-05-19T13:35:15.997Z,20.84
2023-05-19T13:37:43.994Z,21.43
2023-05-19T13:40:12.591Z,20.93
2023-05-19T13:42:40.570Z,22.02
2023-05-19T13:45:09.633Z,22.51
2023-05-19T13:47:39.759Z,21.55
2023-05-19T13:50:08.560Z,22.14
2023-05-19T13:52:36.326Z,21.98
2023-05-19T13:55:04.169Z,21.30
2023-05-19T13:57:31.884Z,21.70
2023-05-19T14:00:02.746Z,21.77
2023-05-19T14:02:32.094Z,20.74
2023-05-19T14:05:01.811Z,21.37
2023-05-19T14:07:30.129Z,22.84
2023-05-19T14:09:57.800Z,21.05
2023-05-19T14:12:35.372Z,20.78
2023-05-19T14:15:09.156Z,21.37
2023-05-19T14:17:37.565Z,21.22
2023-05-19T14:20:08.016Z,21.30
2023-05-19T14:22:35.639Z,21.15
2023-05-19T14:25:03.830Z,21.62
2023-05-19T14:27:31.584Z,21.16
2023-05-19T14:29:59.374Z,22.16
2023-05-19T14:32:30.082Z,22.86
2023-05-19T14:34:58.164Z,22.86
2023-05-19T14:37:28.931Z,21.88
2023-05-19T14:40:01.344Z,22.10
2023-05-19T14:42:29.040Z,22.51
2023-05-19T14:44:56.939Z,20.76
2023-05-19T14:47:26.201Z,20.60
2023-05-19T14:49:54.701Z,20.37
2023-05-19T14:52:22.705Z,20.59
2023-05-19T14:54:51.807Z,20.36
2023-05-19T14:57:19.555Z,20.31
2023-05-19T14:59:47.250Z,20.72
2023-05-19T15:02:14.924Z,20.52
2023-05-19T15:04:42.824Z,20.18
2023-05-19T15:07:11.090Z,20.44
2023-05-19T15:09:39.135Z,20.51
2023-05-19T15:12:08.714Z,21.48
2023-05-19T15:14:36.425Z,21.46
2023-05-19T15:17:04.156Z,22.02
2023-05-19T15:19:32.075Z,21.23
2023-05-19T15:21:59.894Z,20.68
2023-05-19T15:24:28.112Z,21.10
2023-05-19T15:26:56.457Z,20.77
2023-05-19T15:29:25.545Z,20.71
2023-05-19T15:31:53.385Z,20.47
2023-05-19T15:34:21.468Z,20.49
2023-05-19T15:36:49.282Z,19.75
2023-05-19T15:39:17.040Z,20.08
2023-05-19T15:41:44.711Z,21.10
2023-05-19T15:44:12.385Z,21.03
2023-05-19T15:46:41.524Z,19.38
2023-05-19T15:49:09.368Z,19.48
2023-05-19T15:51:40.723Z,19.94
2023-05-19T15:54:08.410Z,20.11
2023-05-19T15:56:36.093Z,19.53
2023-05-19T15:59:03.804Z,19.97
2023-05-19T16:01:31.658Z,20.65
2023-05-19T16:04:03.572Z,19.95
2023-05-19T16:06:31.640Z,20.42
2023-05-19T16:08:59.404Z,20.70
2023-05-19T16:11:27.277Z,21.15
2023-05-19T16:13:54.955Z,20.81
2023-05-19T16:16:22.697Z,20.28
2023-05-19T16:18:50.550Z,20.71
2023-05-19T16:21:19.649Z,21.19
2023-05-19T16:23:47.553Z,19.98
2023-05-19T16:26:15.356Z,20.45
2023-05-19T16:28:43.008Z,20.01
2023-05-19T16:31:10.797Z,20.75
2023-05-19T16:33:38.541Z,21.08
2023-05-19T16:36:06.468Z,21.32
2023-05-19T16:38:35.488Z,21.00
2023-05-19T16:41:05.169Z,21.16
2023-05-19T16:43:33.424Z,20.30
2023-05-19T16:46:03.404Z,19.85
2023-05-19T16:48:31.374Z,20.15
2023-05-19T16:50:59.876Z,21.26
2023-05-19T16:53:27.802Z,21.68
2023-05-19T16:55:58.963Z,20.09
2023-05-19T16:58:28.006Z,20.52
2023-05-19T17:00:57.736Z,20.93
2023-05-19T17:03:25.674Z,20.65
2023-05-19T17:05:53.479Z,20.37
2023-05-19T17:08:21.218Z,19.78
2023-05-19T17:10:48.946Z,19.51
2023-05-19T17:13:17.996Z,20.03
2023-05-19T17:15:45.673Z,20.33
2023-05-19T17:18:13.421Z,19.10
2023-05-19T17:20:41.578Z,20.61
2023-05-19T17:23:09.341Z,19.97
2023-05-19T17:25:37.188Z,19.98
2023-05-19T17:28:05.159Z,19.69
2023-05-19T17:30:34.695Z,19.45
2023-05-19T17:33:02.643Z,19.71
2023-05-19T17:35:30.292Z,19.41
2023-05-19T17:37:58.021Z,19.88
2023-05-19T17:40:25.951Z,19.40
2023-05-19T17:42:53.648Z,19.50
2023-05-19T17:45:21.511Z,19.30
2023-05-19T17:47:50.548Z,19.57
2023-05-19T17:50:18.294Z,20.07
2023-05-19T17:52:46.478Z,19.62
2023-05-19T17:55:14.915Z,19.36
2023-05-19T17:57:45.418Z,19.62
2023-05-19T18:00:14.272Z,19.34
2023-05-19T18:02:42.433Z,19.80
2023-05-19T18:05:12.858Z,20.13
2023-05-19T18:07:43.149Z,20.08
2023-05-19T18:10:12.730Z,19.31
2023-05-19T18:12:40.431Z,19.56
2023-05-19T18:15:08.887Z,19.72
2023-05-19T18:17:36.646Z,19.87
2023-05-19T18:20:05.304Z,19.69
2023-05-19T18:22:34.349Z,20.50
2023-05-19T18:25:02.034Z,20.88
2023-05-19T18:27:29.830Z,21.19
2023-05-19T18:29:57.673Z,18.57
2023-05-19T18:32:25.359Z,18.85
2023-05-19T18:34:53.128Z,18.86
2023-05-19T18:37:20.815Z,18.89
2023-05-19T18:39:49.905Z,18.69
2023-05-19T18:42:17.615Z,19.63
2023-05-19T18:44:46.764Z,19.06
2023-05-19T18:47:15.053Z,18.55
2023-05-19T18:49:43.156Z,18.89
2023-05-19T18:52:11.097Z,19.17
2023-05-19T18:54:40.544Z,18.42
2023-05-19T18:57:09.816Z,18.92
2023-05-19T18:59:37.520Z,19.75
2023-05-19T19:02:05.385Z,20.11
2023-05-19T19:04:33.169Z,19.12
2023-05-19T19:07:01.322Z,18.43
2023-05-19T19:09:29.041Z,18.55
2023-05-19T19:11:56.741Z,19.52
2023-05-19T19:14:25.723Z,19.81
2023-05-19T19:16:53.539Z,19.37
2023-05-19T19:19:23.638Z,19.88
2023-05-19T19:21:51.585Z,18.75
2023-05-19T19:24:19.234Z,18.09
2023-05-19T19:26:46.910Z,19.07
2023-05-19T19:29:16.656Z,19.31
2023-05-19T19:31:45.808Z,17.74
2023-05-19T19:34:13.625Z,17.96
2023-05-19T19:36:41.314Z,18.06
2023-05-19T19:39:09.461Z,18.47
2023-05-19T19:41:37.512Z,17.71
2023-05-19T19:44:05.600Z,18.30
2023-05-19T19:46:33.322Z,18.64
2023-05-19T19:49:02.459Z,18.42
2023-05-19T19:51:30.263Z,18.77
2023-05-19T19:53:58.151Z,18.57
2023-05-19T19:56:27.511Z,18.90
2023-05-19T19:58:56.870Z,17.98
2023-05-19T20:01:27.515Z,17.40
2023-05-19T20:03:55.877Z,17.61
2023-05-19T20:06:25.160Z,17.63
2023-05-19T20:08:52.858Z,18.41
2023-05-19T20:11:22.856Z,18.27
2023-05-19T20:13:50.593Z,18.83
2023-05-19T20:16:18.327Z,17.64
2023-05-19T20:18:46.141Z,18.47
2023-05-19T20:21:13.909Z,17.75
2023-05-19T20:23:43.073Z,18.58
2023-05-19T20:26:13.434Z,18.20
2023-05-19T20:28:41.605Z,18.30
2023-05-19T20:31:09.810Z,17.55
2023-05-19T20:33:37.448Z,17.56
2023-05-19T20:36:06.553Z,17.61
2023-05-19T20:38:34.307Z,17.21
2023-05-19T20:41:03.865Z,17.60
2023-05-19T20:43:32.810Z,17.16
2023-05-19T20:46:01.625Z,17.10
2023-05-19T20:50:57.361Z,16.66
2023-05-19T20:53:25.108Z,17.00
2023-05-19T20:55:53.150Z,16.95
2023-05-19T20:58:22.255Z,16.33
2023-05-19T21:00:56.790Z,17.11
2023-05-19T21:03:24.789Z,16.38
2023-05-19T21:05:52.421Z,16.63
2023-05-19T21:08:20.128Z,16.22
2023-05-19T21:10:48.001Z,17.12
2023-05-19T21:13:15.678Z,16.32
2023-05-19T21:15:44.712Z,16.78
2023-05-19T21:18:13.251Z,16.61
2023-05-19T21:20:42.001Z,15.96
2023-05-19T21:23:09.710Z,15.64
2023-05-19T21:25:37.412Z,16.14
2023-05-19T21:28:06.024Z,15.87
2023-05-19T21:30:33.997Z,16.03
2023-05-19T21:33:03.324Z,16.65
2023-05-19T21:35:31.418Z,16.89
2023-05-19T21:38:03.878Z,16.73
2023-05-19T21:40:36.809Z,15.93
2023-05-19T21:43:05.841Z,15.98
2023-05-19T21:45:33.538Z,15.28
2023-05-19T21:48:01.258Z,15.65
2023-05-19T21:50:36.548Z,15.82
2023-05-19T21:53:04.311Z,15.14
2023-05-19T21:55:31.985Z,15.50
2023-05-19T21:58:01.654Z,15.60
2023-05-19T22:00:30.324Z,15.39
2023-05-19T22:02:58.139Z,15.42
2023-05-19T22:05:25.896Z,15.77
2023-05-19T22:07:54.915Z,16.47
2023-05-19T22:10:22.876Z,15.57
2023-05-19T22:12:50.681Z,15.61
2023-05-19T22:15:18.500Z,15.96
2023-05-19T22:17:46.232Z,15.73
2023-05-19T22:20:13.924Z,14.95
2023-05-19T22:22:42.048Z,15.26
2023-05-19T22:25:11.209Z,15.29
2023-05-19T22:27:38.892Z,15.61
2023-05-19T22:30:08.747Z,15.48
2023-05-19T22:32:36.990Z,15.15
2023-05-19T22:35:06.548Z,15.53
2023-05-19T22:37:34.486Z,15.80
2023-05-19T22:40:02.138Z,15.41
2023-05-19T22:42:31.344Z,14.93
2023-05-19T22:44:59.122Z,15.75
2023-05-19T22:47:26.961Z,15.96
2023-05-19T22:49:55.625Z,16.09
2023-05-19T22:52:24.782Z,15.76
2023-05-19T22:54:52.445Z,15.24
2023-05-19T22:57:20.211Z,15.24
2023-05-19T22:59:49.250Z,14.99
2023-05-19T23:02:16.887Z,15.64
2023-05-19T23:04:44.539Z,14.90
2023-05-19T23:07:12.232Z,14.93
2023-05-19T23:09:39.923Z,14.68
2023-05-19T23:12:08.191Z,14.94
2023-05-19T23:14:36.140Z,15.97
2023-05-19T23:17:05.502Z,16.17
2023-05-19T23:19:34.953Z,15.55
2023-05-19T23:22:02.591Z,14.79
2023-05-19T23:24:30.478Z,15.54
2023-05-19T23:26:58.267Z,14.83
2023-05-19T23:29:26.206Z,15.71
2023-05-19T23:31:54.023Z,16.29
2023-05-19T23:34:23.171Z,14.84
2023-05-19T23:36:50.864Z,14.78
2023-05-19T23:39:18.543Z,15.27
2023-05-19T23:41:46.269Z,16.05
2023-05-19T23:44:13.896Z,14.48
2023-05-19T23:46:41.904Z,15.51
2023-05-19T23:49:09.649Z,15.86
2023-05-19T23:51:38.758Z,15.97
2023-05-19T23:54:06.494Z,16.12
2023-05-19T23:56:34.203Z,16.19
2023-05-19T23:59:01.888Z,16.13
